createdAt,value
2023-04-28T00:00:02.331Z,9.10
2023-04-28T00:02:28.915Z,9.08
2023-04-28T00:04:55.583Z,9.06
2023-04-28T00:07:22.230Z,9.09
2023-04-28T00:09:48.781Z,9.09
2023-04-28T00:12:15.360Z,9.11
2023-04-28T00:14:41.895Z,9.12
2023-04-28T00:17:10.115Z,9.17
2023-04-28T00:19:36.802Z,9.16
2023-04-28T00:22:03.326Z,9.13
2023-04-28T00:24:29.893Z,9.11
2023-04-28T00:26:57.596Z,9.09
2023-04-28T00:29:24.078Z,9.13
2023-04-28T00:31:50.660Z,9.15
2023-04-28T00:34:17.557Z,9.11
2023-04-28T00:36:44.641Z,9.10
2023-04-28T00:39:11.296Z,9.09
2023-04-28T00:41:37.961Z,9.07
2023-04-28T00:44:04.717Z,9.10
2023-04-28T00:46:32.178Z,9.07
2023-04-28T00:48:58.820Z,9.09
2023-04-28T00:51:25.451Z,9.09
2023-04-28T00:53:52.107Z,9.07
2023-04-28T00:56:19.017Z,9.10
2023-04-28T00:58:45.717Z,9.08
2023-04-28T01:01:12.299Z,9.06
2023-04-28T01:03:41.506Z,9.04
2023-04-28T01:06:09.203Z,9.06
2023-04-28T01:08:36.946Z,9.05
2023-04-28T01:11:03.514Z,9.02
2023-04-28T01:13:30.259Z,9.01
2023-04-28T01:15:57.135Z,8.99
2023-04-28T01:18:24.333Z,8.98
2023-04-28T01:20:51.063Z,8.95
2023-04-28T01:23:18.231Z,8.94
2023-04-28T01:25:44.867Z,8.96
2023-04-28T01:28:11.710Z,8.96
2023-04-28T01:30:38.229Z,8.98
2023-04-28T01:33:04.838Z,8.94
2023-04-28T01:35:31.458Z,8.95
2023-04-28T01:37:58.033Z,8.99
2023-04-28T01:40:24.808Z,8.98
2023-04-28T01:42:51.481Z,8.93
2023-04-28T01:45:17.983Z,8.90
2023-04-28T01:47:44.539Z,8.87
2023-04-28T01:50:11.549Z,8.87
2023-04-28T01:52:38.083Z,8.89
2023-04-28T01:55:04.996Z,8.88
2023-04-28T01:57:33.424Z,8.84
2023-04-28T02:00:00.619Z,8.84
2023-04-28T02:02:27.306Z,8.83
2023-04-28T02:04:53.917Z,8.83
2023-04-28T02:07:20.482Z,8.80
2023-04-28T02:09:47.065Z,8.83
2023-04-28T02:12:13.728Z,8.79
2023-04-28T02:14:40.208Z,8.78
2023-04-28T02:17:06.744Z,8.78
2023-04-28T02:19:33.253Z,8.76
2023-04-28T02:21:59.756Z,8.78
2023-04-28T02:24:26.243Z,8.79
2023-04-28T02:26:52.860Z,8.73
2023-04-28T02:29:19.791Z,8.71
2023-04-28T02:31:46.423Z,8.66
2023-04-28T02:34:14.494Z,8.60
2023-04-28T02:36:41.225Z,8.62
2023-04-28T02:39:07.768Z,8.62
2023-04-28T02:41:34.681Z,8.65
2023-04-28T02:44:01.467Z,8.67
2023-04-28T02:46:28.020Z,8.66
2023-04-28T02:48:54.593Z,8.68
2023-04-28T02:51:21.148Z,8.71
2023-04-28T02:53:47.753Z,8.70
2023-04-28T02:56:14.314Z,8.72
2023-04-28T02:58:40.936Z,8.71
2023-04-28T03:01:07.497Z,8.73
2023-04-28T03:03:34.491Z,8.73
2023-04-28T03:06:01.142Z,8.70
2023-04-28T03:08:27.643Z,8.70
2023-04-28T03:10:54.266Z,8.67
2023-04-28T03:13:20.765Z,8.69
2023-04-28T03:15:47.349Z,8.69
2023-04-28T03:18:13.840Z,8.62
2023-04-28T03:20:40.342Z,8.60
2023-04-28T03:23:07.614Z,8.60
2023-04-28T03:25:34.195Z,8.61
2023-04-28T03:28:00.799Z,8.61
2023-04-28T03:30:27.388Z,8.64
2023-04-28T03:32:53.885Z,8.61
2023-04-28T03:35:20.414Z,8.63
2023-04-28T03:37:47.270Z,8.69
2023-04-28T03:40:13.829Z,8.66
2023-04-28T03:42:40.403Z,8.63
2023-04-28T03:45:07.931Z,8.58
2023-04-28T03:47:34.469Z,8.57
2023-04-28T03:50:01.013Z,8.56
2023-04-28T03:52:27.529Z,8.59
2023-04-28T03:54:54.098Z,8.56
2023-04-28T03:57:20.693Z,8.60
2023-04-28T03:59:47.169Z,8.59
2023-04-28T04:02:13.725Z,8.57
2023-04-28T04:04:40.372Z,8.59
2023-04-28T04:07:07.177Z,8.57
2023-04-28T04:09:33.744Z,8.58
2023-04-28T04:12:01.173Z,8.58
2023-04-28T04:14:27.647Z,8.57
2023-04-28T04:16:55.503Z,8.58
2023-04-28T04:19:24.036Z,8.52
2023-04-28T04:21:50.476Z,8.51
2023-04-28T04:24:17.223Z,8.54
2023-04-28T04:26:44.110Z,8.49
2023-04-28T04:29:10.796Z,8.52
2023-04-28T04:31:37.653Z,8.45
2023-04-28T04:34:04.240Z,8.44
2023-04-28T04:36:30.783Z,8.40
2023-04-28T04:38:57.323Z,8.39
2023-04-28T04:41:23.999Z,8.34
2023-04-28T04:43:50.748Z,8.32
2023-04-28T04:46:17.327Z,8.26
2023-04-28T04:48:44.387Z,8.17
2023-04-28T04:51:11.430Z,8.14
2023-04-28T04:53:38.005Z,8.16
2023-04-28T04:56:05.179Z,8.19
2023-04-28T04:58:31.894Z,8.19
2023-04-28T05:00:58.447Z,8.20
2023-04-28T05:03:25.118Z,8.18
2023-04-28T05:05:51.795Z,8.24
2023-04-28T05:08:18.533Z,8.24
2023-04-28T05:10:45.150Z,8.24
2023-04-28T05:13:11.796Z,8.25
2023-04-28T05:15:38.351Z,8.25
2023-04-28T05:18:10.939Z,8.25
2023-04-28T05:20:37.882Z,8.16
2023-04-28T05:23:04.474Z,8.11
2023-04-28T05:25:31.127Z,8.04
2023-04-28T05:27:57.653Z,7.99
2023-04-28T05:30:24.177Z,7.89
2023-04-28T05:32:50.706Z,7.75
2023-04-28T05:35:17.618Z,7.71
2023-04-28T05:37:45.149Z,7.69
2023-04-28T05:40:11.847Z,7.72
2023-04-28T05:42:38.387Z,7.71
2023-04-28T05:45:06.896Z,7.75
2023-04-28T05:47:33.333Z,7.82
2023-04-28T05:49:59.846Z,7.85
2023-04-28T05:52:26.538Z,7.86
2023-04-28T05:54:53.034Z,7.89
2023-04-28T05:57:19.958Z,7.90
2023-04-28T05:59:46.535Z,7.92
2023-04-28T06:02:13.069Z,7.94
2023-04-28T06:04:39.814Z,7.91
2023-04-28T06:07:06.527Z,7.91
2023-04-28T06:09:33.096Z,7.89
2023-04-28T06:11:59.582Z,7.81
2023-04-28T06:14:26.117Z,7.73
2023-04-28T06:16:52.625Z,7.68
2023-04-28T06:19:19.149Z,7.65
2023-04-28T06:21:46.454Z,7.68
2023-04-28T06:24:13.116Z,7.71
2023-04-28T06:26:39.622Z,7.67
2023-04-28T06:29:06.235Z,7.76
2023-04-28T06:31:32.812Z,7.76
2023-04-28T06:33:59.399Z,7.71
2023-04-28T06:36:26.428Z,7.74
2023-04-28T06:38:52.995Z,7.71
2023-04-28T06:41:19.568Z,7.72
2023-04-28T06:43:46.154Z,7.78
2023-04-28T06:46:12.762Z,7.84
2023-04-28T06:48:39.399Z,7.89
2023-04-28T06:51:06.210Z,7.96
2023-04-28T06:53:32.746Z,7.97
2023-04-28T06:55:59.316Z,8.02
2023-04-28T06:58:25.922Z,8.07
2023-04-28T07:00:52.490Z,8.10
2023-04-28T07:03:19.128Z,8.14
2023-04-28T07:05:46.302Z,8.05
2023-04-28T07:08:12.826Z,8.11
2023-04-28T07:10:40.406Z,8.06
2023-04-28T07:13:07.447Z,8.15
2023-04-28T07:15:34.086Z,8.26
2023-04-28T07:18:00.953Z,8.36
2023-04-28T07:20:27.527Z,8.41
2023-04-28T07:22:54.136Z,8.49
2023-04-28T07:25:20.607Z,8.49
2023-04-28T07:27:47.229Z,8.63
2023-04-28T07:30:26.415Z,8.63
2023-04-28T07:32:54.322Z,8.69
2023-04-28T07:35:21.229Z,8.72
2023-04-28T07:37:48.300Z,8.80
2023-04-28T07:40:14.858Z,8.91
2023-04-28T07:42:41.604Z,8.90
2023-04-28T07:45:08.687Z,9.06
2023-04-28T07:47:35.520Z,9.22
2023-04-28T07:50:05.256Z,9.34
2023-04-28T07:52:32.653Z,9.29
2023-04-28T07:54:59.608Z,9.23
2023-04-28T07:57:26.569Z,9.20
2023-04-28T07:59:53.149Z,9.17
2023-04-28T08:02:20.724Z,9.20
2023-04-28T08:04:47.490Z,9.20
2023-04-28T08:07:14.430Z,9.20
2023-04-28T08:09:42.963Z,9.35
2023-04-28T08:12:09.529Z,9.45
2023-04-28T08:14:36.111Z,9.46
2023-04-28T08:17:02.888Z,9.54
2023-04-28T08:19:29.541Z,9.64
2023-04-28T08:21:56.074Z,9.76
2023-04-28T08:24:22.597Z,9.90
2023-04-28T08:26:49.220Z,9.94
2023-04-28T08:29:15.837Z,10.00
2023-04-28T08:31:42.466Z,10.08
2023-04-28T08:34:09.086Z,10.19
2023-04-28T08:36:35.640Z,10.37
2023-04-28T08:39:03.996Z,10.52
2023-04-28T08:41:33.086Z,10.69
2023-04-28T08:43:59.777Z,10.72
2023-04-28T08:46:27.625Z,10.89
2023-04-28T08:49:03.621Z,10.97
2023-04-28T08:51:37.002Z,11.07
2023-04-28T08:56:36.732Z,11.17
2023-04-28T08:59:04.747Z,11.17
2023-04-28T09:01:32.037Z,11.14
2023-04-28T09:04:01.932Z,11.24
2023-04-28T09:06:34.129Z,11.36
2023-04-28T09:09:23.335Z,11.47
2023-04-28T09:11:53.823Z,11.48
2023-04-28T09:14:20.382Z,11.51
2023-04-28T09:16:47.053Z,11.63
2023-04-28T09:19:13.553Z,11.54
2023-04-28T09:21:56.743Z,11.61
2023-04-28T09:24:33.165Z,11.36
2023-04-28T09:27:04.250Z,11.50
2023-04-28T09:29:31.733Z,11.52
2023-04-28T09:32:27.792Z,11.46
2023-04-28T09:34:59.534Z,11.42
2023-04-28T09:37:31.154Z,11.39
2023-04-28T09:40:04.306Z,11.47
2023-04-28T09:42:38.627Z,11.42
2023-04-28T09:45:07.193Z,11.38
2023-04-28T09:47:36.704Z,11.38
2023-04-28T09:50:09.413Z,11.36
2023-04-28T09:52:36.717Z,11.33
2023-04-28T09:55:05.519Z,11.26
2023-04-28T09:57:33.809Z,11.20
2023-04-28T10:00:00.490Z,11.16
2023-04-28T10:04:57.351Z,11.20
2023-04-28T10:07:24.230Z,11.21
2023-04-28T10:09:51.243Z,11.17
2023-04-28T10:12:18.479Z,11.17
2023-04-28T10:14:45.834Z,11.07
2023-04-28T10:17:16.574Z,11.16
2023-04-28T10:19:45.415Z,11.11
2023-04-28T10:22:37.030Z,11.18
2023-04-28T10:25:25.481Z,11.16
2023-04-28T10:27:52.338Z,11.18
2023-04-28T10:30:28.004Z,11.11
2023-04-28T10:33:13.683Z,11.16
2023-04-28T10:35:47.768Z,11.12
2023-04-28T10:38:18.871Z,11.14
2023-04-28T10:40:46.698Z,11.11
2023-04-28T10:43:15.246Z,11.07
2023-04-28T10:45:56.678Z,11.03
2023-04-28T10:48:46.922Z,11.07
2023-04-28T10:51:16.532Z,11.14
2023-04-28T10:53:46.118Z,11.17
2023-04-28T10:56:16.585Z,11.18
2023-04-28T10:58:46.113Z,11.23
2023-04-28T11:01:18.771Z,11.21
2023-04-28T11:03:49.335Z,11.32
2023-04-28T11:06:25.779Z,11.26
2023-04-28T11:08:53.255Z,11.39
2023-04-28T11:11:25.789Z,11.41
2023-04-28T11:13:54.295Z,11.41
2023-04-28T11:16:23.009Z,11.44
2023-04-28T11:18:56.879Z,11.46
2023-04-28T11:21:24.897Z,11.42
2023-04-28T11:23:51.821Z,11.46
2023-04-28T11:26:19.663Z,11.48
2023-04-28T11:28:50.070Z,11.36
2023-04-28T11:31:19.462Z,11.45
2023-04-28T11:33:54.389Z,11.47
2023-04-28T11:36:33.567Z,11.51
2023-04-28T11:39:00.476Z,11.69
2023-04-28T11:41:27.283Z,11.66
2023-04-28T11:43:54.056Z,11.76
2023-04-28T11:46:23.105Z,11.85
2023-04-28T11:49:00.928Z,11.84
2023-04-28T11:51:35.467Z,12.00
2023-04-28T11:54:03.530Z,11.93
2023-04-28T11:56:30.603Z,11.95
2023-04-28T11:59:10.683Z,11.93
2023-04-28T12:01:55.006Z,11.96
2023-04-28T12:04:41.949Z,11.94
2023-04-28T12:07:19.733Z,11.90
2023-04-28T12:10:11.268Z,11.95
2023-04-28T12:15:08.526Z,11.93
2023-04-28T12:17:40.185Z,11.97
2023-04-28T12:20:08.674Z,11.92
2023-04-28T12:23:02.667Z,11.83
2023-04-28T12:25:29.479Z,11.83
2023-04-28T12:28:02.436Z,11.87
2023-04-28T12:30:30.883Z,11.95
2023-04-28T12:32:57.674Z,11.95
2023-04-28T12:35:28.732Z,11.93
2023-04-28T12:37:56.996Z,12.03
2023-04-28T12:40:24.338Z,12.16
2023-04-28T12:42:51.178Z,12.15
2023-04-28T12:45:17.874Z,12.27
2023-04-28T12:47:44.538Z,12.29
2023-04-28T12:50:11.362Z,12.31
2023-04-28T12:52:38.054Z,12.35
2023-04-28T12:55:05.239Z,12.35
2023-04-28T12:57:31.942Z,12.23
2023-04-28T12:59:58.507Z,12.11
2023-04-28T13:02:25.360Z,12.08
2023-04-28T13:04:53.433Z,12.07
2023-04-28T13:07:20.245Z,12.03
2023-04-28T13:09:47.732Z,12.08
2023-04-28T13:12:14.728Z,12.19
2023-04-28T13:14:41.467Z,12.12
2023-04-28T13:17:09.094Z,12.37
2023-04-28T13:19:35.722Z,12.50
2023-04-28T13:22:05.029Z,12.59
2023-04-28T13:24:33.442Z,12.59
2023-04-28T13:27:00.357Z,12.70
2023-04-28T13:29:26.927Z,12.86
2023-04-28T13:31:53.524Z,12.83
2023-04-28T13:34:20.380Z,12.84
2023-04-28T13:36:48.251Z,12.79
2023-04-28T13:39:14.978Z,12.71
2023-04-28T13:41:41.893Z,12.66
2023-04-28T13:44:09.651Z,12.67
2023-04-28T13:46:36.182Z,12.83
2023-04-28T13:49:02.774Z,12.88
2023-04-28T13:51:29.513Z,12.97
2023-04-28T13:53:56.526Z,12.96
2023-04-28T13:56:23.036Z,12.96
2023-04-28T13:58:49.625Z,13.02
2023-04-28T14:01:16.405Z,12.93
2023-04-28T14:03:44.343Z,12.91
2023-04-28T14:06:11.223Z,13.00
2023-04-28T14:08:37.741Z,13.01
2023-04-28T14:11:04.460Z,13.11
2023-04-28T14:13:31.266Z,13.04
2023-04-28T14:15:59.468Z,13.03
2023-04-28T14:18:29.781Z,13.16
2023-04-28T14:20:56.430Z,13.11
2023-04-28T14:23:23.128Z,13.07
2023-04-28T14:25:50.337Z,13.04
2023-04-28T14:28:17.152Z,13.08
2023-04-28T14:30:44.156Z,13.02
2023-04-28T14:33:10.846Z,12.97
2023-04-28T14:35:37.523Z,12.92
2023-04-28T14:38:04.263Z,12.85
2023-04-28T14:40:31.082Z,12.83
2023-04-28T14:42:57.876Z,12.82
2023-04-28T14:45:24.496Z,12.71
2023-04-28T14:47:51.149Z,12.69
2023-04-28T14:50:18.207Z,12.72
2023-04-28T14:52:44.725Z,12.65
2023-04-28T14:55:14.043Z,12.71
2023-04-28T14:57:40.846Z,12.61
2023-04-28T15:00:08.154Z,12.65
2023-04-28T15:02:35.948Z,12.58
2023-04-28T15:05:02.899Z,12.57
2023-04-28T15:07:31.840Z,12.66
2023-04-28T15:10:01.624Z,12.71
2023-04-28T15:12:30.689Z,12.76
2023-04-28T15:14:57.972Z,12.75
2023-04-28T15:17:24.918Z,12.79
2023-04-28T15:19:51.902Z,12.85
2023-04-28T15:22:18.573Z,12.72
2023-04-28T15:24:45.158Z,12.70
2023-04-28T15:27:11.805Z,12.65
2023-04-28T15:29:38.670Z,12.70
2023-04-28T15:32:05.510Z,12.66
2023-04-28T15:34:32.057Z,12.53
2023-04-28T15:36:58.582Z,12.58
2023-04-28T15:39:25.673Z,12.50
2023-04-28T15:41:52.984Z,12.46
2023-04-28T15:44:19.918Z,12.28
2023-04-28T15:46:46.468Z,12.25
2023-04-28T15:49:13.852Z,12.15
2023-04-28T15:51:40.392Z,12.07
2023-04-28T15:54:07.026Z,12.04
2023-04-28T15:56:33.697Z,11.96
2023-04-28T15:59:00.283Z,11.95
2023-04-28T16:01:28.057Z,11.91
2023-04-28T16:03:54.785Z,11.89
2023-04-28T16:06:21.474Z,11.85
2023-04-28T16:08:48.082Z,11.88
2023-04-28T16:11:17.866Z,11.86
2023-04-28T16:13:45.221Z,11.86
2023-04-28T16:16:12.501Z,11.76
2023-04-28T16:18:39.320Z,11.72
2023-04-28T16:21:05.919Z,11.70
2023-04-28T16:23:32.528Z,11.72
2023-04-28T16:25:59.337Z,11.68
2023-04-28T16:28:26.786Z,11.65
2023-04-28T16:30:53.373Z,11.60
2023-04-28T16:33:19.955Z,11.52
2023-04-28T16:35:53.894Z,11.47
2023-04-28T16:38:20.750Z,11.38
2023-04-28T16:40:47.365Z,11.43
2023-04-28T16:43:14.369Z,11.43
2023-04-28T16:45:41.286Z,11.42
2023-04-28T16:48:07.957Z,11.42
2023-04-28T16:50:34.579Z,11.46
2023-04-28T16:53:01.272Z,11.46
2023-04-28T16:55:27.896Z,11.43
2023-04-28T16:57:54.446Z,11.38
2023-04-28T17:00:21.317Z,11.34
2023-04-28T17:02:47.953Z,11.23
2023-04-28T17:05:14.569Z,11.17
2023-04-28T17:07:41.242Z,11.17
2023-04-28T17:10:08.356Z,11.07
2023-04-28T17:12:34.972Z,11.09
2023-04-28T17:15:01.822Z,11.07
2023-04-28T17:17:29.215Z,11.04
2023-04-28T17:19:56.953Z,11.05
2023-04-28T17:22:23.540Z,11.07
2023-04-28T17:24:50.100Z,11.00
2023-04-28T17:27:16.638Z,10.91
2023-04-28T17:29:43.517Z,10.81
2023-04-28T17:32:11.054Z,10.69
2023-04-28T17:34:37.861Z,10.69
2023-04-28T17:37:04.426Z,10.69
2023-04-28T17:39:31.700Z,10.65
2023-04-28T17:41:58.708Z,10.63
2023-04-28T17:44:25.478Z,10.57
2023-04-28T17:46:52.061Z,10.55
2023-04-28T17:49:18.817Z,10.50
2023-04-28T17:51:45.569Z,10.47
2023-04-28T17:54:12.147Z,10.44
2023-04-28T17:56:39.130Z,10.39
2023-04-28T17:59:06.013Z,10.33
2023-04-28T18:01:34.465Z,10.30
2023-04-28T18:04:01.086Z,10.26
2023-04-28T18:06:29.001Z,10.26
2023-04-28T18:08:55.617Z,10.24
2023-04-28T18:11:22.991Z,10.27
2023-04-28T18:13:49.580Z,10.25
2023-04-28T18:16:16.235Z,10.21
2023-04-28T18:18:42.868Z,10.24
2023-04-28T18:21:09.672Z,10.29
2023-04-28T18:23:36.212Z,10.22
2023-04-28T18:26:02.955Z,10.22
2023-04-28T18:28:29.600Z,10.19
2023-04-28T18:30:56.067Z,10.18
2023-04-28T18:33:28.518Z,10.16
2023-04-28T18:36:02.187Z,10.12
2023-04-28T18:38:30.921Z,10.09
2023-04-28T18:40:57.949Z,10.06
2023-04-28T18:43:25.894Z,10.07
2023-04-28T18:45:52.477Z,10.06
2023-04-28T18:48:19.565Z,10.05
2023-04-28T18:50:48.583Z,10.04
2023-04-28T18:53:15.667Z,10.06
2023-04-28T18:55:42.248Z,10.00
2023-04-28T18:58:08.761Z,9.97
2023-04-28T19:00:37.171Z,9.92
2023-04-28T19:03:04.183Z,9.90
2023-04-28T19:05:30.992Z,9.83
2023-04-28T19:07:57.509Z,9.83
2023-04-28T19:10:24.085Z,9.81
2023-04-28T19:12:50.626Z,9.77
2023-04-28T19:15:17.416Z,9.77
2023-04-28T19:17:44.512Z,9.71
2023-04-28T19:20:11.521Z,9.74
2023-04-28T19:22:40.957Z,9.70
2023-04-28T19:25:07.992Z,9.66
2023-04-28T19:27:37.014Z,9.66
2023-04-28T19:30:06.084Z,9.69
2023-04-28T19:32:32.633Z,9.65
2023-04-28T19:34:59.241Z,9.62
2023-04-28T19:37:25.983Z,9.57
2023-04-28T19:39:52.751Z,9.52
2023-04-28T19:42:19.362Z,9.48
2023-04-28T19:44:47.284Z,9.47
2023-04-28T19:47:13.981Z,9.46
2023-04-28T19:49:43.466Z,9.47
2023-04-28T19:52:10.291Z,9.46
2023-04-28T19:54:39.736Z,9.42
2023-04-28T19:57:06.246Z,9.42
2023-04-28T19:59:33.823Z,9.36
2023-04-28T20:02:00.537Z,9.32
2023-04-28T20:04:29.160Z,9.35
2023-04-28T20:06:56.052Z,9.30
2023-04-28T20:09:22.648Z,9.33
2023-04-28T20:11:49.542Z,9.28
2023-04-28T20:14:16.073Z,9.26
2023-04-28T20:16:43.353Z,9.13
2023-04-28T20:19:10.018Z,9.13
2023-04-28T20:21:37.296Z,9.09
2023-04-28T20:24:03.858Z,9.09
2023-04-28T20:26:31.210Z,9.03
2023-04-28T20:28:58.833Z,9.05
2023-04-28T20:31:25.593Z,9.03
2023-04-28T20:33:52.575Z,9.00
2023-04-28T20:36:19.052Z,8.97
2023-04-28T20:38:46.099Z,8.95
2023-04-28T20:41:12.633Z,8.95
2023-04-28T20:43:39.227Z,8.94
2023-04-28T20:46:13.279Z,8.92
2023-04-28T20:48:40.368Z,8.91
2023-04-28T20:51:07.470Z,8.84
2023-04-28T20:53:34.209Z,8.82
2023-04-28T20:56:00.767Z,8.85
2023-04-28T20:58:28.151Z,8.82
2023-04-28T21:00:54.771Z,8.83
2023-04-28T21:03:23.702Z,8.80
2023-04-28T21:05:50.349Z,8.75
2023-04-28T21:08:17.092Z,8.75
2023-04-28T21:10:43.594Z,8.73
2023-04-28T21:13:10.403Z,8.65
2023-04-28T21:15:38.012Z,8.63
2023-04-28T21:18:04.953Z,8.58
2023-04-28T21:20:31.523Z,8.62
2023-04-28T21:22:58.525Z,8.57
2023-04-28T21:25:28.180Z,8.53
2023-04-28T21:27:55.337Z,8.50
2023-04-28T21:30:22.181Z,8.47
2023-04-28T21:32:48.925Z,8.47
2023-04-28T21:35:16.316Z,8.48
2023-04-28T21:37:42.883Z,8.41
2023-04-28T21:40:10.014Z,8.42
2023-04-28T21:42:36.576Z,8.38
2023-04-28T21:45:03.346Z,8.38
2023-04-28T21:47:30.105Z,8.38
2023-04-28T21:49:56.936Z,8.37
2023-04-28T21:52:23.444Z,8.33
2023-04-28T21:54:50.002Z,8.39
2023-04-28T21:57:16.851Z,8.32
2023-04-28T21:59:43.966Z,8.33
2023-04-28T22:02:10.587Z,8.37
2023-04-28T22:04:37.475Z,8.37
2023-04-28T22:07:04.632Z,8.33
2023-04-28T22:09:31.408Z,8.35
2023-04-28T22:11:58.044Z,8.33
2023-04-28T22:14:39.536Z,8.29
2023-04-28T22:17:07.475Z,8.29
2023-04-28T22:19:34.131Z,8.25
2023-04-28T22:22:00.799Z,8.28
2023-04-28T22:24:27.915Z,8.25
2023-04-28T22:26:55.059Z,8.28
2023-04-28T22:29:22.048Z,8.27
2023-04-28T22:31:48.724Z,8.31
2023-04-28T22:34:16.789Z,8.28
2023-04-28T22:36:45.010Z,8.23
2023-04-28T22:39:11.952Z,8.25
2023-04-28T22:41:38.731Z,8.26
2023-04-28T22:44:05.466Z,8.27
2023-04-28T22:46:32.211Z,8.23
2023-04-28T22:48:59.058Z,8.19
2023-04-28T22:51:25.617Z,8.20
2023-04-28T22:53:54.204Z,8.22
2023-04-28T22:56:21.252Z,8.21
2023-04-28T22:58:47.816Z,8.27
2023-04-28T23:01:14.452Z,8.31
2023-04-28T23:03:41.417Z,8.31
2023-04-28T23:06:08.222Z,8.26
2023-04-28T23:08:35.560Z,8.24
2023-04-28T23:11:05.844Z,8.29
2023-04-28T23:13:32.620Z,8.28
2023-04-28T23:16:02.497Z,8.26
2023-04-28T23:18:31.261Z,8.28
2023-04-28T23:20:57.812Z,8.26
2023-04-28T23:23:24.337Z,8.29
2023-04-28T23:25:51.943Z,8.31
2023-04-28T23:28:18.826Z,8.32
2023-04-28T23:30:45.466Z,8.27
2023-04-28T23:33:11.991Z,8.26
2023-04-28T23:35:38.543Z,8.29
2023-04-28T23:38:05.065Z,8.28
2023-04-28T23:40:31.687Z,8.27
2023-04-28T23:42:58.287Z,8.24
2023-04-28T23:45:25.437Z,8.23
2023-04-28T23:47:53.349Z,8.25
2023-04-28T23:50:20.008Z,8.31
2023-04-28T23:52:47.179Z,8.27
2023-04-28T23:55:13.777Z,8.24
2023-04-28T23:57:40.359Z,8.22
